createdAt,value
2022-12-26T00:00:12.240Z,51.259586
2022-12-26T00:01:12.147Z,51.259525
2022-12-26T00:02:12.244Z,51.259506
2022-12-26T00:03:12.163Z,51.259537
2022-12-26T00:04:52.206Z,51.259495
2022-12-26T00:05:13.123Z,51.259537
2022-12-26T00:06:12.097Z,51.259594
2022-12-26T00:07:12.084Z,51.259529
2022-12-26T00:08:12.045Z,51.259506
2022-12-26T00:09:12.061Z,51.259525
2022-12-26T00:10:12.071Z,51.259571
2022-12-26T00:11:12.022Z,51.259613
2022-12-26T00:12:12.024Z,51.259521
2022-12-26T00:13:38.862Z,51.259506
2022-12-26T00:14:13.021Z,51.259617
2022-12-26T00:15:12.025Z,51.259617
2022-12-26T00:16:12.056Z,51.259571
2022-12-26T00:17:12.057Z,51.259544
2022-12-26T00:18:11.952Z,51.259514
2022-12-26T00:19:12.009Z,51.259556
2022-12-26T00:20:11.949Z,51.259697
2022-12-26T00:21:11.958Z,51.259605
2022-12-26T00:22:12.016Z,51.259567
2022-12-26T00:23:11.996Z,51.259521
2022-12-26T00:24:11.974Z,51.259583
2022-12-26T00:25:11.933Z,51.259533
2022-12-26T00:26:11.877Z,51.259636
2022-12-26T00:27:11.907Z,51.259621
2022-12-26T00:28:11.928Z,51.259644
2022-12-26T00:29:11.879Z,51.259594
2022-12-26T00:30:11.930Z,51.259594
2022-12-26T00:31:11.937Z,51.259590
2022-12-26T00:32:11.892Z,51.259598
2022-12-26T00:33:11.847Z,51.259521
2022-12-26T00:34:11.888Z,51.259556
2022-12-26T00:35:11.882Z,51.259628
2022-12-26T00:36:11.792Z,51.259655
2022-12-26T00:37:11.779Z,51.259682
2022-12-26T00:38:11.871Z,51.259541
2022-12-26T00:39:11.830Z,51.259544
2022-12-26T00:40:11.775Z,51.259560
2022-12-26T00:41:11.825Z,51.259499
2022-12-26T00:42:11.769Z,51.259636
2022-12-26T00:43:11.784Z,51.259621
2022-12-26T00:44:11.742Z,51.259632
2022-12-26T00:45:11.709Z,51.259586
2022-12-26T00:46:11.707Z,51.259575
2022-12-26T00:47:11.823Z,51.259556
2022-12-26T00:48:11.771Z,51.259510
2022-12-26T00:49:11.702Z,51.259590
2022-12-26T00:50:15.667Z,51.259552
2022-12-26T00:51:11.676Z,51.259548
2022-12-26T00:52:12.302Z,51.259594
2022-12-26T00:53:11.690Z,51.259682
2022-12-26T00:54:11.611Z,51.259655
2022-12-26T00:55:11.602Z,51.259571
2022-12-26T00:56:11.608Z,51.259632
2022-12-26T00:57:11.658Z,51.259590
2022-12-26T00:58:11.590Z,51.259705
2022-12-26T00:59:11.579Z,51.259602
2022-12-26T01:00:11.543Z,51.259682
2022-12-26T01:01:11.624Z,51.259621
2022-12-26T01:02:11.633Z,51.259609
2022-12-26T01:03:11.629Z,51.259636
2022-12-26T01:04:11.575Z,51.259560
2022-12-26T01:05:11.560Z,51.259514
2022-12-26T01:06:11.518Z,51.259544
2022-12-26T01:07:11.495Z,51.259514
2022-12-26T01:08:19.636Z,51.259525
2022-12-26T01:09:12.592Z,51.259579
2022-12-26T01:10:11.455Z,51.259556
2022-12-26T01:11:11.475Z,51.259541
2022-12-26T01:12:11.453Z,51.259583
2022-12-26T01:13:11.453Z,51.259556
2022-12-26T01:14:11.434Z,51.259590
2022-12-26T01:15:11.403Z,51.259563
2022-12-26T01:16:11.477Z,51.259544
2022-12-26T01:17:11.411Z,51.259575
2022-12-26T01:18:11.388Z,51.259537
2022-12-26T01:19:11.391Z,51.259567
2022-12-26T01:20:11.349Z,51.259560
2022-12-26T01:21:11.346Z,51.259525
2022-12-26T01:22:11.382Z,51.259541
2022-12-26T01:23:11.351Z,51.259617
2022-12-26T01:24:11.517Z,51.259613
2022-12-26T01:25:11.315Z,51.259575
2022-12-26T01:26:18.900Z,51.259609
2022-12-26T01:27:12.294Z,51.259666
2022-12-26T01:28:11.329Z,51.259628
2022-12-26T01:29:11.275Z,51.259602
2022-12-26T01:30:11.262Z,51.259621
2022-12-26T01:31:11.293Z,51.259544
2022-12-26T01:32:11.264Z,51.259533
2022-12-26T01:33:11.284Z,51.259533
2022-12-26T01:34:11.232Z,51.259514
2022-12-26T01:35:11.216Z,51.259510
2022-12-26T01:36:11.206Z,51.259476
2022-12-26T01:37:11.185Z,51.259476
2022-12-26T01:38:11.192Z,51.259350
2022-12-26T01:39:11.180Z,51.259415
2022-12-26T01:40:11.241Z,51.259502
2022-12-26T01:41:11.149Z,51.259514
2022-12-26T01:42:11.145Z,51.259541
2022-12-26T01:43:11.174Z,51.259579
2022-12-26T01:44:11.121Z,51.259563
2022-12-26T01:45:11.143Z,51.259586
2022-12-26T01:46:11.137Z,51.259628
2022-12-26T01:47:11.088Z,51.259609
2022-12-26T01:48:11.096Z,51.259640
2022-12-26T01:49:11.068Z,51.259602
2022-12-26T01:50:11.067Z,51.259632
2022-12-26T01:51:11.064Z,51.259514
2022-12-26T01:52:11.041Z,51.259525
2022-12-26T01:53:11.056Z,51.259560
2022-12-26T01:54:39.735Z,51.259541
2022-12-26T01:55:12.020Z,51.259525
2022-12-26T01:56:11.002Z,51.259548
2022-12-26T01:57:10.999Z,51.259525
2022-12-26T01:58:11.012Z,51.259602
2022-12-26T01:59:10.990Z,51.259579
2022-12-26T02:00:10.967Z,51.259586
2022-12-26T02:01:11.097Z,51.259609
2022-12-26T02:02:11.151Z,51.259567
2022-12-26T02:03:11.057Z,51.259579
2022-12-26T02:04:10.929Z,51.259563
2022-12-26T02:05:10.926Z,51.259632
2022-12-26T02:06:10.920Z,51.259571
2022-12-26T02:07:10.900Z,51.259605
2022-12-26T02:08:10.898Z,51.259590
2022-12-26T02:09:10.889Z,51.259739
2022-12-26T02:10:10.873Z,51.259693
2022-12-26T02:11:10.863Z,51.259609
2022-12-26T02:12:34.362Z,51.259556
2022-12-26T02:13:11.861Z,51.259624
2022-12-26T02:14:10.832Z,51.259624
2022-12-26T02:15:10.836Z,51.259632
2022-12-26T02:16:10.925Z,51.259575
2022-12-26T02:17:10.808Z,51.259575
2022-12-26T02:18:10.817Z,51.259583
2022-12-26T02:19:10.796Z,51.259605
2022-12-26T02:20:10.790Z,51.259514
2022-12-26T02:21:10.767Z,51.259575
2022-12-26T02:22:10.745Z,51.259510
2022-12-26T02:23:10.753Z,51.259556
2022-12-26T02:24:10.727Z,51.259583
2022-12-26T02:25:10.748Z,51.259621
2022-12-26T02:26:10.723Z,51.259579
2022-12-26T02:27:10.721Z,51.259579
2022-12-26T02:28:10.723Z,51.259537
2022-12-26T02:29:10.680Z,51.259483
2022-12-26T02:30:10.683Z,51.259491
2022-12-26T02:31:10.650Z,51.259468
2022-12-26T02:32:10.714Z,51.259541
2022-12-26T02:33:10.662Z,51.259541
2022-12-26T02:34:10.634Z,51.259476
2022-12-26T02:35:10.647Z,51.259487
2022-12-26T02:36:10.614Z,51.259449
2022-12-26T02:37:10.607Z,51.259483
2022-12-26T02:38:10.609Z,51.259556
2022-12-26T02:39:44.061Z,51.259548
2022-12-26T02:40:11.574Z,51.259502
2022-12-26T02:41:10.565Z,51.259552
2022-12-26T02:42:10.582Z,51.259556
2022-12-26T02:43:10.556Z,51.259647
2022-12-26T02:44:10.536Z,51.259602
2022-12-26T02:45:10.526Z,51.259605
2022-12-26T02:46:10.569Z,51.259590
2022-12-26T02:47:10.526Z,51.259632
2022-12-26T02:48:10.539Z,51.259624
2022-12-26T02:49:10.515Z,51.259575
2022-12-26T02:50:10.505Z,51.259541
2022-12-26T02:51:10.483Z,51.259605
2022-12-26T02:52:10.466Z,51.259567
2022-12-26T02:53:10.474Z,51.259766
2022-12-26T02:54:11.163Z,51.259640
2022-12-26T02:55:11.445Z,51.259605
2022-12-26T02:56:10.436Z,51.259518
2022-12-26T02:57:10.418Z,51.259525
2022-12-26T02:58:10.423Z,51.259605
2022-12-26T02:59:10.403Z,51.259624
2022-12-26T03:00:10.400Z,51.259823
2022-12-26T03:01:10.460Z,51.259830
2022-12-26T03:02:10.575Z,51.259827
2022-12-26T03:03:10.469Z,51.259827
2022-12-26T03:04:10.376Z,51.259720
2022-12-26T03:05:10.354Z,51.259716
2022-12-26T03:06:10.332Z,51.259708
2022-12-26T03:07:10.328Z,51.259613
2022-12-26T03:08:10.348Z,51.259598
2022-12-26T03:09:10.315Z,51.259853
2022-12-26T03:10:10.300Z,51.259762
2022-12-26T03:11:10.293Z,51.259537
2022-12-26T03:12:10.280Z,51.259457
2022-12-26T03:13:10.282Z,51.259377
2022-12-26T03:14:10.275Z,51.259514
2022-12-26T03:15:10.260Z,51.259624
2022-12-26T03:16:10.454Z,51.259647
2022-12-26T03:17:10.318Z,51.259567
2022-12-26T03:18:10.220Z,51.259598
2022-12-26T03:19:10.248Z,51.259621
2022-12-26T03:20:10.214Z,51.259605
2022-12-26T03:21:10.200Z,51.259594
2022-12-26T03:22:10.187Z,51.259632
2022-12-26T03:23:10.176Z,51.259640
2022-12-26T03:24:10.185Z,51.259636
2022-12-26T03:25:11.162Z,51.259586
2022-12-26T03:26:10.153Z,51.259605
2022-12-26T03:27:10.142Z,51.259560
2022-12-26T03:28:10.139Z,51.259560
2022-12-26T03:29:13.278Z,51.259621
2022-12-26T03:30:11.127Z,51.259514
2022-12-26T03:31:10.127Z,51.259445
2022-12-26T03:32:10.107Z,51.259380
2022-12-26T03:33:10.079Z,51.259491
2022-12-26T03:34:10.088Z,51.259525
2022-12-26T03:35:10.058Z,51.259502
2022-12-26T03:36:10.046Z,51.259499
2022-12-26T03:37:10.043Z,51.259472
2022-12-26T03:38:10.042Z,51.259445
2022-12-26T03:39:10.067Z,51.259544
2022-12-26T03:40:10.023Z,51.259624
2022-12-26T03:41:10.035Z,51.259613
2022-12-26T03:42:09.987Z,51.259438
2022-12-26T03:43:10.001Z,51.259480
2022-12-26T03:44:09.994Z,51.259575
2022-12-26T03:45:09.957Z,51.259541
2022-12-26T03:46:09.994Z,51.259411
2022-12-26T03:47:09.932Z,51.259315
2022-12-26T03:48:10.935Z,51.259483
2022-12-26T03:49:09.947Z,51.259590
2022-12-26T03:50:09.932Z,51.259628
2022-12-26T03:51:09.912Z,51.259480
2022-12-26T03:52:09.897Z,51.259384
2022-12-26T03:53:09.914Z,51.259506
2022-12-26T03:54:09.895Z,51.259468
2022-12-26T03:55:09.870Z,51.259575
2022-12-26T03:56:09.864Z,51.259636
2022-12-26T03:57:09.866Z,51.259682
2022-12-26T03:58:09.838Z,51.259720
2022-12-26T03:59:09.881Z,51.259743
2022-12-26T05:26:44.176Z,51.259548
2022-12-26T05:27:44.184Z,51.259602
2022-12-26T06:14:10.205Z,51.259377
2022-12-26T06:15:10.188Z,51.259315
2022-12-26T06:16:10.220Z,51.259354
2022-12-26T06:17:10.157Z,51.259449
2022-12-26T06:18:10.155Z,51.259357
2022-12-26T06:19:10.161Z,51.259342
2022-12-26T06:20:10.122Z,51.259327
2022-12-26T06:21:10.135Z,51.259430
2022-12-26T06:22:10.111Z,51.259426
2022-12-26T06:23:10.108Z,51.259342
2022-12-26T06:24:10.085Z,51.259350
2022-12-26T06:25:10.181Z,51.259190
2022-12-26T06:26:10.259Z,51.259315
2022-12-26T06:27:10.068Z,51.259392
2022-12-26T06:28:10.052Z,51.259277
2022-12-26T06:29:10.052Z,51.259212
2022-12-26T06:30:10.060Z,51.259182
2022-12-26T06:31:11.034Z,51.259293
2022-12-26T06:32:10.004Z,51.259159
2022-12-26T06:33:10.001Z,51.259220
2022-12-26T06:34:10.011Z,51.259071
2022-12-26T06:35:10.007Z,51.259205
2022-12-26T06:36:09.978Z,51.259235
2022-12-26T06:37:10.001Z,51.259235
2022-12-26T06:38:09.978Z,51.259235
2022-12-26T06:39:09.944Z,51.259235
2022-12-26T06:40:09.945Z,51.259235
2022-12-26T06:41:09.925Z,51.259235
2022-12-26T06:42:09.924Z,51.259235
2022-12-26T06:43:09.912Z,51.259235
2022-12-26T06:44:16.145Z,51.259235
2022-12-26T06:45:10.905Z,51.259235
2022-12-26T06:46:09.877Z,51.259354
2022-12-26T06:47:09.903Z,51.259418
2022-12-26T06:48:09.843Z,51.259369
2022-12-26T06:49:09.842Z,51.259418
2022-12-26T06:50:09.866Z,51.259487
2022-12-26T06:51:09.880Z,51.259518
2022-12-26T06:52:09.814Z,51.259533
2022-12-26T06:53:09.813Z,51.259571
2022-12-26T06:54:09.803Z,51.259426
2022-12-26T06:55:09.805Z,51.259373
2022-12-26T06:56:09.783Z,51.259396
2022-12-26T06:57:09.777Z,51.259396
2022-12-26T06:58:09.765Z,51.259483
2022-12-26T06:59:09.752Z,51.259373
2022-12-26T07:00:09.762Z,51.259472
2022-12-26T07:01:09.895Z,51.259373
2022-12-26T07:02:09.844Z,51.259594
2022-12-26T07:03:09.799Z,51.259563
2022-12-26T07:04:09.697Z,51.259533
2022-12-26T07:05:09.709Z,51.259480
2022-12-26T07:06:09.681Z,51.259529
2022-12-26T07:07:09.679Z,51.259495
2022-12-26T07:08:09.667Z,51.259548
2022-12-26T07:09:09.651Z,51.259289
2022-12-26T07:10:09.667Z,51.259357
2022-12-26T07:11:09.623Z,51.259335
2022-12-26T07:12:09.632Z,51.259377
2022-12-26T07:13:09.618Z,51.259354
2022-12-26T07:14:09.607Z,51.259388
2022-12-26T07:15:09.627Z,51.259529
2022-12-26T07:16:09.638Z,51.259350
2022-12-26T07:17:09.590Z,51.259354
2022-12-26T07:18:09.570Z,51.259418
2022-12-26T07:19:09.554Z,51.259464
2022-12-26T07:20:09.594Z,51.259365
2022-12-26T07:21:09.544Z,51.259411
2022-12-26T07:22:09.530Z,51.259499
2022-12-26T07:23:09.530Z,51.259418
2022-12-26T07:24:09.526Z,51.259434
2022-12-26T07:25:09.543Z,51.259521
2022-12-26T07:26:09.514Z,51.259548
2022-12-26T07:27:09.491Z,51.259502
2022-12-26T07:28:09.488Z,51.259541
2022-12-26T07:29:09.489Z,51.259399
2022-12-26T07:30:09.495Z,51.259388
2022-12-26T07:31:09.500Z,51.259487
2022-12-26T07:32:09.504Z,51.259426
2022-12-26T07:33:09.437Z,51.259521
2022-12-26T07:34:09.441Z,51.259640
2022-12-26T07:35:09.424Z,51.259537
2022-12-26T07:36:09.429Z,51.259518
2022-12-26T07:37:09.412Z,51.259521
2022-12-26T07:38:09.463Z,51.259514
2022-12-26T07:39:09.381Z,51.259499
2022-12-26T07:40:09.393Z,51.259537
2022-12-26T07:41:09.382Z,51.259552
2022-12-26T07:42:09.360Z,51.259560
2022-12-26T07:43:09.356Z,51.259594
2022-12-26T07:44:09.336Z,51.259571
2022-12-26T07:45:09.345Z,51.259724
2022-12-26T07:46:09.345Z,51.259777
2022-12-26T07:47:09.306Z,51.259548
2022-12-26T07:53:56.068Z,51.259579
2022-12-26T07:54:56.110Z,51.259541
2022-12-26T07:55:56.033Z,51.259472
2022-12-26T07:57:15.068Z,51.259514
2022-12-26T07:57:58.020Z,51.259510
2022-12-26T07:58:56.006Z,51.259510
2022-12-26T07:59:56.024Z,51.259510
2022-12-26T08:00:56.004Z,51.259510
2022-12-26T08:01:56.141Z,51.259510
2022-12-26T08:03:01.170Z,51.259510
2022-12-26T08:03:56.990Z,51.259510
2022-12-26T08:04:55.965Z,51.259510
2022-12-26T08:05:55.931Z,51.259510
2022-12-26T08:06:55.931Z,51.259510
2022-12-26T08:07:55.915Z,51.259510
2022-12-26T08:08:55.907Z,51.259510
2022-12-26T08:09:55.911Z,51.259510
2022-12-26T08:10:55.894Z,51.259510
2022-12-26T08:11:55.891Z,51.259510
2022-12-26T08:12:55.874Z,51.259510
2022-12-26T08:13:55.859Z,51.259510
2022-12-26T08:14:55.867Z,51.259510
2022-12-26T08:15:55.844Z,51.259510
2022-12-26T08:16:55.939Z,51.259510
2022-12-26T08:17:55.809Z,51.259510
2022-12-26T08:18:55.827Z,51.259510
2022-12-26T08:19:55.818Z,51.259510
2022-12-26T08:20:55.797Z,51.259510
2022-12-26T08:21:55.779Z,51.259510
2022-12-26T08:23:56.772Z,51.259510
2022-12-26T08:24:55.778Z,51.259510
2022-12-26T08:25:55.739Z,51.259510
2022-12-26T08:26:56.730Z,51.259510
2022-12-26T08:27:55.721Z,51.259510
2022-12-26T08:28:55.715Z,51.259510
2022-12-26T08:29:55.713Z,51.259510
2022-12-26T08:30:55.700Z,51.259510
2022-12-26T08:31:55.684Z,51.259510
2022-12-26T08:32:55.665Z,51.259590
2022-12-26T08:33:55.657Z,51.259544
2022-12-26T08:34:55.652Z,51.259533
2022-12-26T08:35:55.658Z,51.259521
2022-12-26T08:36:55.635Z,51.259605
2022-12-26T08:37:55.617Z,51.259605
2022-12-26T08:38:55.627Z,51.259567
2022-12-26T08:39:55.616Z,51.259632
2022-12-26T08:40:55.608Z,51.259655
2022-12-26T08:41:55.583Z,51.259655
2022-12-26T08:43:12.150Z,51.259655
2022-12-26T08:44:28.005Z,51.259655
2022-12-26T08:44:57.573Z,51.259655
2022-12-26T08:45:55.574Z,51.259655
2022-12-26T08:46:55.527Z,51.259579
2022-12-26T08:47:55.523Z,51.259602
2022-12-26T08:48:55.513Z,51.259647
2022-12-26T08:49:55.502Z,51.259609
2022-12-26T08:50:55.520Z,51.259613
2022-12-26T08:51:55.505Z,51.259521
2022-12-26T08:52:55.479Z,51.259487
2022-12-26T08:53:55.526Z,51.259483
2022-12-26T08:54:55.461Z,51.259472
2022-12-26T08:55:55.454Z,51.259472
2022-12-26T08:56:55.440Z,51.259575
2022-12-26T08:57:55.427Z,51.259701
2022-12-26T08:58:55.423Z,51.259655
2022-12-26T08:59:55.406Z,51.259712
2022-12-26T09:00:55.728Z,51.259712
2022-12-26T09:01:56.423Z,51.260002
2022-12-26T09:02:55.512Z,51.259781
2022-12-26T09:03:56.385Z,51.259617
2022-12-26T09:04:55.354Z,51.259598
2022-12-26T09:05:55.360Z,51.259712
2022-12-26T09:06:55.373Z,51.259682
2022-12-26T09:07:55.334Z,51.259659
2022-12-26T09:08:55.323Z,51.259598
2022-12-26T09:09:55.302Z,51.259575
2022-12-26T09:10:55.316Z,51.259815
2022-12-26T09:11:55.288Z,51.259773
2022-12-26T09:12:55.300Z,51.259678
2022-12-26T09:13:55.274Z,51.259552
2022-12-26T09:14:55.391Z,51.259502
2022-12-26T09:15:55.264Z,51.259586
2022-12-26T09:16:55.290Z,51.259548
2022-12-26T09:17:55.255Z,51.259567
2022-12-26T09:18:55.208Z,51.259544
2022-12-26T09:19:55.224Z,51.259560
2022-12-26T09:20:55.220Z,51.259583
2022-12-26T09:21:55.199Z,51.259556
2022-12-26T09:22:55.197Z,51.259590
2022-12-26T09:23:55.208Z,51.259579
2022-12-26T09:24:55.185Z,51.259529
2022-12-26T09:25:55.172Z,51.259556
2022-12-26T09:26:55.156Z,51.259525
2022-12-26T09:27:59.142Z,51.259510
2022-12-26T09:28:56.139Z,51.259457
2022-12-26T09:29:55.123Z,51.259544
2022-12-26T09:30:55.298Z,51.259571
2022-12-26T09:31:55.104Z,51.259525
2022-12-26T09:32:55.091Z,51.259533
2022-12-26T09:33:55.088Z,51.259525
2022-12-26T09:34:55.080Z,51.259563
2022-12-26T09:35:58.324Z,51.259544
2022-12-26T09:36:57.061Z,51.259529
2022-12-26T09:37:55.044Z,51.259624
2022-12-26T09:38:55.031Z,51.259621
2022-12-26T09:39:55.031Z,51.259602
2022-12-26T09:40:55.028Z,51.259563
2022-12-26T09:41:54.997Z,51.259583
2022-12-26T09:42:54.994Z,51.259560
2022-12-26T09:43:54.979Z,51.259586
2022-12-26T09:44:55.335Z,51.259499
2022-12-26T09:45:54.982Z,51.259521
2022-12-26T09:46:54.953Z,51.259613
2022-12-26T09:47:54.942Z,51.259613
2022-12-26T09:48:54.923Z,51.259632
2022-12-26T09:49:54.920Z,51.259502
2022-12-26T09:50:54.934Z,51.259598
2022-12-26T09:51:54.911Z,51.259502
2022-12-26T09:52:54.911Z,51.259621
2022-12-26T09:53:54.878Z,51.259983
2022-12-26T09:54:54.880Z,51.259865
2022-12-26T09:55:54.885Z,51.259480
2022-12-26T09:57:03.423Z,51.259575
2022-12-26T09:57:56.844Z,51.259514
2022-12-26T09:58:54.833Z,51.259533
2022-12-26T09:59:54.826Z,51.259460
2022-12-26T10:00:54.837Z,51.259567
2022-12-26T10:01:54.833Z,51.259556
2022-12-26T10:02:54.787Z,51.259632
2022-12-26T10:03:54.792Z,51.259678
2022-12-26T10:04:54.824Z,51.259655
2022-12-26T10:05:54.775Z,51.259716
2022-12-26T10:06:54.757Z,51.259613
2022-12-26T10:07:54.749Z,51.259647
2022-12-26T10:08:54.729Z,51.259598
2022-12-26T10:09:54.714Z,51.259506
2022-12-26T10:10:54.742Z,51.259506
2022-12-26T10:11:54.707Z,51.259560
2022-12-26T10:12:54.701Z,51.259556
2022-12-26T10:13:54.677Z,51.259563
2022-12-26T10:14:54.677Z,51.259521
2022-12-26T10:15:54.736Z,51.259541
2022-12-26T10:16:55.657Z,51.259556
2022-12-26T10:17:54.651Z,51.259594
2022-12-26T10:18:54.645Z,51.259560
2022-12-26T10:19:54.644Z,51.259541
2022-12-26T10:20:54.665Z,51.259514
2022-12-26T10:21:54.597Z,51.259624
2022-12-26T10:22:54.599Z,51.259655
2022-12-26T10:23:54.593Z,51.259624
2022-12-26T10:24:54.580Z,51.259621
2022-12-26T10:25:54.588Z,51.259495
2022-12-26T10:26:54.568Z,51.259621
2022-12-26T10:27:54.579Z,51.259689
2022-12-26T10:28:54.535Z,51.259636
2022-12-26T10:29:54.529Z,51.259624
2022-12-26T10:30:54.551Z,51.259621
2022-12-26T10:31:54.512Z,51.259621
2022-12-26T10:32:54.503Z,51.259617
2022-12-26T10:33:54.483Z,51.259563
2022-12-26T10:34:54.484Z,51.259487
2022-12-26T10:35:54.486Z,51.259548
2022-12-26T10:36:54.455Z,51.259453
2022-12-26T10:37:54.441Z,51.259605
2022-12-26T10:38:54.443Z,51.259682
2022-12-26T10:39:54.431Z,51.259750
2022-12-26T10:40:54.434Z,51.259636
2022-12-26T10:41:54.393Z,51.259727
2022-12-26T10:42:54.409Z,51.259926
2022-12-26T10:43:54.398Z,51.259773
2022-12-26T10:44:54.387Z,51.259670
2022-12-26T10:45:54.391Z,51.259609
2022-12-26T10:46:54.371Z,51.259537
2022-12-26T10:47:54.351Z,51.259510
2022-12-26T10:48:54.349Z,51.259560
2022-12-26T10:49:54.329Z,51.259598
2022-12-26T10:50:54.332Z,51.259571
2022-12-26T10:51:54.314Z,51.259529
2022-12-26T10:52:54.284Z,51.259537
2022-12-26T10:53:54.290Z,51.259556
2022-12-26T10:55:29.719Z,51.259533
2022-12-26T10:55:55.287Z,51.259598
2022-12-26T10:56:54.284Z,51.259529
2022-12-26T10:57:54.255Z,51.259506
2022-12-26T10:58:54.242Z,51.259525
2022-12-26T10:59:54.264Z,51.259502
2022-12-26T11:00:54.226Z,51.259525
2022-12-26T11:01:54.286Z,51.259480
2022-12-26T11:02:54.277Z,51.259483
2022-12-26T11:03:54.219Z,51.259483
2022-12-26T11:05:13.642Z,51.259552
2022-12-26T11:06:07.604Z,51.259506
2022-12-26T11:06:56.248Z,51.259460
2022-12-26T11:07:54.162Z,51.259552
2022-12-26T11:08:54.143Z,51.259525
2022-12-26T11:09:54.159Z,51.259571
2022-12-26T11:10:54.144Z,51.259525
2022-12-26T11:11:54.122Z,51.259495
2022-12-26T11:12:54.096Z,51.259449
2022-12-26T11:14:00.919Z,51.259453
2022-12-26T11:15:20.011Z,51.259487
2022-12-26T11:15:54.161Z,51.259548
2022-12-26T11:16:54.058Z,51.259571
2022-12-26T11:17:54.060Z,51.259575
2022-12-26T11:18:54.039Z,51.259541
2022-12-26T11:19:54.051Z,51.259621
2022-12-26T11:20:54.047Z,51.259541
2022-12-26T11:21:54.024Z,51.259548
2022-12-26T11:22:54.002Z,51.259525
2022-12-26T11:23:53.996Z,51.259487
2022-12-26T11:24:53.980Z,51.259472
2022-12-26T11:25:53.999Z,51.259407
2022-12-26T11:26:53.969Z,51.259472
2022-12-26T11:27:53.957Z,51.259537
2022-12-26T11:28:53.949Z,51.259495
2022-12-26T11:29:53.931Z,51.259377
2022-12-26T11:30:53.974Z,51.259415
2022-12-26T11:31:53.912Z,51.259346
2022-12-26T11:32:53.905Z,51.259499
2022-12-26T11:33:53.917Z,51.259480
2022-12-26T11:34:53.882Z,51.259480
2022-12-26T11:35:53.888Z,51.259418
2022-12-26T11:36:53.856Z,51.259514
2022-12-26T11:37:53.853Z,51.259453
2022-12-26T11:38:53.833Z,51.259495
2022-12-26T11:39:53.846Z,51.259472
2022-12-26T11:40:53.844Z,51.259449
2022-12-26T11:41:53.812Z,51.259449
2022-12-26T11:42:53.792Z,51.259418
2022-12-26T11:43:53.787Z,51.259502
2022-12-26T11:44:53.781Z,51.259335
2022-12-26T11:45:53.796Z,51.259327
2022-12-26T11:46:53.830Z,51.259270
2022-12-26T11:47:53.753Z,51.259357
2022-12-26T11:48:53.744Z,51.259304
2022-12-26T11:49:53.736Z,51.259480
2022-12-26T11:50:53.752Z,51.259434
2022-12-26T11:51:58.797Z,51.259407
2022-12-26T11:52:55.723Z,51.259373
2022-12-26T11:53:53.691Z,51.259460
2022-12-26T11:54:53.686Z,51.259483
2022-12-26T11:55:53.674Z,51.259403
2022-12-26T11:56:53.688Z,51.259602
2022-12-26T11:57:56.907Z,51.259510
2022-12-26T11:58:54.646Z,51.259491
2022-12-26T11:59:53.636Z,51.259399
2022-12-26T12:00:53.627Z,51.259438
2022-12-26T12:01:53.676Z,51.259476
2022-12-26T12:02:53.634Z,51.259449
2022-12-26T12:03:53.638Z,51.259491
2022-12-26T12:04:53.593Z,51.259514
2022-12-26T12:05:53.581Z,51.259552
2022-12-26T12:06:53.583Z,51.259560
2022-12-26T12:07:53.558Z,51.259533
2022-12-26T12:08:53.548Z,51.259403
2022-12-26T12:09:53.533Z,51.259441
2022-12-26T12:10:53.526Z,51.259335
2022-12-26T12:11:53.540Z,51.259319
2022-12-26T12:12:53.507Z,51.259529
2022-12-26T12:13:53.502Z,51.259563
2022-12-26T12:14:54.993Z,51.259537
2022-12-26T12:15:54.484Z,51.259399
2022-12-26T12:16:53.558Z,51.259483
2022-12-26T12:17:53.462Z,51.259552
2022-12-26T12:18:53.440Z,51.259392
2022-12-26T12:19:53.445Z,51.259319
2022-12-26T12:20:53.430Z,51.259418
2022-12-26T12:21:53.436Z,51.259762
2022-12-26T12:22:53.402Z,51.259712
2022-12-26T12:23:53.399Z,51.259560
2022-12-26T12:24:53.386Z,51.259430
2022-12-26T12:25:53.391Z,51.259342
2022-12-26T12:26:58.720Z,51.259350
2022-12-26T12:27:53.355Z,51.259575
2022-12-26T12:28:53.348Z,51.259735
2022-12-26T12:29:53.341Z,51.259804
2022-12-26T12:30:53.320Z,51.259666
2022-12-26T12:31:53.370Z,51.259701
2022-12-26T12:32:57.059Z,51.259598
2022-12-26T12:33:54.307Z,51.259407
2022-12-26T12:34:53.278Z,51.259285
2022-12-26T12:35:53.278Z,51.259350
2022-12-26T12:36:53.289Z,51.259388
2022-12-26T12:37:53.262Z,51.259365
2022-12-26T12:38:56.555Z,51.259373
2022-12-26T12:39:53.233Z,51.259319
2022-12-26T12:40:53.225Z,51.259365
2022-12-26T12:41:53.342Z,51.259357
2022-12-26T12:42:53.197Z,51.259502
2022-12-26T12:43:53.195Z,51.259563
2022-12-26T12:44:55.768Z,51.259483
2022-12-26T12:45:54.282Z,51.259399
2022-12-26T12:46:53.178Z,51.259377
2022-12-26T12:47:53.160Z,51.259449
2022-12-26T12:48:53.147Z,51.259579
2022-12-26T12:49:53.148Z,51.259418
2022-12-26T12:50:56.725Z,51.259438
2022-12-26T12:51:53.137Z,51.259422
2022-12-26T12:52:53.111Z,51.259453
2022-12-26T12:53:53.102Z,51.259449
2022-12-26T12:54:53.081Z,51.259476
2022-12-26T12:55:53.083Z,51.259727
2022-12-26T12:56:53.083Z,51.259720
2022-12-26T12:57:53.058Z,51.259621
2022-12-26T12:58:53.050Z,51.259495
2022-12-26T12:59:53.057Z,51.259411
2022-12-26T13:00:53.063Z,51.259453
2022-12-26T13:01:53.258Z,51.259525
2022-12-26T13:02:53.103Z,51.259529
2022-12-26T13:03:53.003Z,51.259518
2022-12-26T13:04:53.007Z,51.259483
2022-12-26T13:05:52.982Z,51.259544
2022-12-26T13:06:52.993Z,51.259556
2022-12-26T13:07:52.962Z,51.259541
2022-12-26T13:08:52.965Z,51.259499
2022-12-26T13:09:52.944Z,51.259560
2022-12-26T13:10:52.928Z,51.259495
2022-12-26T13:11:52.942Z,51.259541
2022-12-26T13:12:52.908Z,51.259525
2022-12-26T13:13:53.916Z,51.259514
2022-12-26T13:14:53.894Z,51.259502
2022-12-26T13:15:52.881Z,51.259560
2022-12-26T13:16:52.904Z,51.259560
2022-12-26T13:17:52.855Z,51.259506
2022-12-26T13:18:52.848Z,51.259521
2022-12-26T13:19:55.107Z,51.259502
2022-12-26T13:20:52.856Z,51.259529
2022-12-26T13:21:52.836Z,51.259514
2022-12-26T13:22:52.798Z,51.259521
2022-12-26T13:23:52.796Z,51.259586
2022-12-26T13:24:52.792Z,51.259602
2022-12-26T13:25:52.779Z,51.259571
2022-12-26T13:26:52.787Z,51.259533
2022-12-26T13:27:52.764Z,51.259521
2022-12-26T13:28:52.754Z,51.259548
2022-12-26T13:29:52.747Z,51.259525
2022-12-26T13:30:52.739Z,51.259529
2022-12-26T13:31:52.810Z,51.259598
2022-12-26T13:32:52.701Z,51.259613
2022-12-26T13:33:52.700Z,51.259602
2022-12-26T13:34:52.700Z,51.259583
2022-12-26T13:35:52.679Z,51.259560
2022-12-26T13:36:52.688Z,51.259502
2022-12-26T13:37:52.655Z,51.259541
2022-12-26T13:38:54.440Z,51.259491
2022-12-26T13:39:53.664Z,51.259525
2022-12-26T13:40:52.633Z,51.259586
2022-12-26T13:41:52.643Z,51.259525
2022-12-26T13:42:52.606Z,51.259575